Terminal Aerodrome Forecast
Issued by NWS Shreveport, LA

Home | Current Version | Previous Version | Text Only | Print | Product List | Glossary On
Versions: 1 2 3 4 5 6 7 8 9 10 11 12 13
000
FTUS44 KSHV 280526
TAFTXK
TAF
KTXK 280526Z 2806/2906 22003KT P6SM SCT250
     FM281500 26006KT P6SM SKC
     FM281900 27008G14KT P6SM SKC
     FM290000 28007KT P6SM SKC
     FM290200 29006KT P6SM SKC=

USA.gov is the U.S. government's official web portal to all federal, state and local government web resources and services.